Time;durP1;ratioP1;P1;durP2;ratioP2;P2;SDS_P1;SDS_P2;PMS_P1;PMS_P2;Temp;Humidity;BMP_temperature;BMP_pressure;BME280_temperature;BME280_humidity;BME280_pressure;Samples;Min_cycle;Max_cycle;Signal;HPM_P1;HPM_P2
2023/12/14 00:00:29;;;;;;;3.75;2.13;;;21.20;99.90;;;;;;4975905;28;20050;-46
2023/12/14 00:02:55;;;;;;;3.45;1.77;;;21.30;99.90;;;;;;4974426;28;20122;-46
2023/12/14 00:05:21;;;;;;;3.33;1.95;;;21.20;99.90;;;;;;4975814;28;20114;-46
2023/12/14 00:07:46;;;;;;;2.78;1.88;;;21.20;99.90;;;;;;4974445;28;20360;-46
2023/12/14 00:10:12;;;;;;;4.43;2.13;;;21.20;99.90;;;;;;4975897;28;20049;-45
2023/12/14 00:12:38;;;;;;;4.68;2.17;;;21.20;99.90;;;;;;4975630;28;20053;-45
2023/12/14 00:15:05;;;;;;;3.40;1.95;;;21.20;99.90;;;;;;4975744;28;20030;-46
2023/12/14 00:17:31;;;;;;;3.30;1.80;;;21.20;99.90;;;;;;4975682;28;20022;-46
2023/12/14 00:19:57;;;;;;;4.82;1.77;;;21.20;99.90;;;;;;4975583;28;20173;-46
2023/12/14 00:22:23;;;;;;;2.70;1.90;;;21.20;99.90;;;;;;4974837;28;20077;-46
2023/12/14 00:24:48;;;;;;;2.28;1.60;;;21.20;99.90;;;;;;4975725;28;20023;-46
2023/12/14 00:27:14;;;;;;;3.20;1.90;;;21.20;99.90;;;;;;4974524;28;20483;-45
2023/12/14 00:29:40;;;;;;;3.42;1.92;;;21.10;99.90;;;;;;4975597;28;20043;-46
2023/12/14 00:32:06;;;;;;;3.53;2.00;;;21.10;99.90;;;;;;4975694;28;20105;-46
2023/12/14 00:34:32;;;;;;;4.75;1.88;;;21.20;99.90;;;;;;4973859;28;20031;-46
2023/12/14 00:36:58;;;;;;;3.17;1.73;;;21.10;99.90;;;;;;4975359;28;20395;-46
2023/12/14 00:39:23;;;;;;;3.85;1.73;;;21.10;99.90;;;;;;4975155;28;20031;-46
2023/12/14 00:41:49;;;;;;;4.50;1.58;;;21.10;99.90;;;;;;4974003;28;20019;-47
2023/12/14 00:44:15;;;;;;;4.63;1.95;;;21.10;99.90;;;;;;4975543;28;20027;-47
2023/12/14 00:46:41;;;;;;;3.00;1.63;;;21.10;99.90;;;;;;4975157;28;20106;-46
2023/12/14 00:49:07;;;;;;;2.33;1.70;;;21.10;99.90;;;;;;4975061;28;20072;-46
2023/12/14 00:51:33;;;;;;;4.43;1.52;;;21.10;99.90;;;;;;4975100;28;20097;-46
2023/12/14 00:53:59;;;;;;;2.58;1.50;;;21.10;99.90;;;;;;4975016;28;20503;-46
2023/12/14 00:56:25;;;;;;;1.95;1.50;;;21.00;99.90;;;;;;4974880;28;20030;-46
2023/12/14 00:58:51;;;;;;;2.97;1.75;;;21.00;99.90;;;;;;4973420;28;20027;-46
2023/12/14 01:01:16;;;;;;;3.05;1.58;;;21.00;99.90;;;;;;4975499;28;20058;-47
2023/12/14 01:03:42;;;;;;;3.42;1.75;;;21.00;99.90;;;;;;4974660;28;20128;-50
2023/12/14 01:06:08;;;;;;;2.58;1.65;;;21.00;99.90;;;;;;4974631;28;20118;-46
2023/12/14 01:08:34;;;;;;;3.40;2.05;;;21.00;99.90;;;;;;4974710;28;20483;-45
2023/12/14 01:11:00;;;;;;;6.85;1.67;;;21.10;99.90;;;;;;4974858;28;20030;-46
2023/12/14 01:13:25;;;;;;;3.40;1.80;;;21.00;99.90;;;;;;4974635;28;20102;-46
2023/12/14 01:15:51;;;;;;;2.90;1.75;;;21.00;99.90;;;;;;4974583;28;20023;-46
2023/12/14 01:18:17;;;;;;;5.10;1.50;;;21.00;99.90;;;;;;4974747;28;20435;-49
2023/12/14 01:20:43;;;;;;;2.75;1.35;;;21.00;99.90;;;;;;4974396;28;20093;-47
2023/12/14 01:23:09;;;;;;;4.13;1.58;;;21.00;99.90;;;;;;4974432;28;20031;-46
2023/12/14 01:25:36;;;;;;;1.92;1.67;;;21.00;99.90;;;;;;4974425;28;20019;-46
2023/12/14 01:28:02;;;;;;;3.35;1.83;;;21.00;99.90;;;;;;4974401;28;20069;-46
2023/12/14 01:30:28;;;;;;;3.35;1.60;;;20.90;99.90;;;;;;4974367;28;20061;-46
2023/12/14 01:32:53;;;;;;;2.65;1.45;;;21.00;99.90;;;;;;4974188;28;20388;-47
2023/12/14 01:35:19;;;;;;;3.08;1.45;;;20.90;99.90;;;;;;4973449;28;20061;-48
2023/12/14 01:37:45;;;;;;;2.55;1.58;;;20.90;99.90;;;;;;4974400;28;20026;-47
2023/12/14 01:40:11;;;;;;;2.65;1.83;;;20.90;99.90;;;;;;4972911;28;20042;-46
2023/12/14 01:42:37;;;;;;;3.80;1.35;;;20.90;99.90;;;;;;4974074;28;20138;-47
2023/12/14 01:45:04;;;;;;;4.28;1.80;;;20.90;99.90;;;;;;4974165;28;20110;-46
2023/12/14 01:47:30;;;;;;;4.55;1.80;;;20.90;99.90;;;;;;4973955;28;20027;-46
2023/12/14 01:49:55;;;;;;;3.13;1.58;;;20.90;99.90;;;;;;4974061;28;20092;-46
2023/12/14 01:52:21;;;;;;;2.20;1.58;;;20.90;99.90;;;;;;4974070;28;20050;-46
2023/12/14 01:54:47;;;;;;;2.20;1.42;;;20.90;99.90;;;;;;4974187;28;20475;-47
2023/12/14 01:57:13;;;;;;;4.28;1.38;;;20.90;99.90;;;;;;4973845;28;20019;-47
2023/12/14 01:59:38;;;;;;;2.60;1.52;;;20.80;99.90;;;;;;4973807;28;20479;-46
2023/12/14 02:02:05;;;;;;;2.65;1.45;;;20.80;99.90;;;;;;4974222;28;20546;-46
2023/12/14 02:04:31;;;;;;;2.70;1.52;;;20.90;99.90;;;;;;4973642;28;20022;-46
2023/12/14 02:06:57;;;;;;;2.92;1.45;;;20.80;99.90;;;;;;4973751;28;20026;-46
2023/12/14 02:09:23;;;;;;;2.38;1.33;;;20.80;99.90;;;;;;4972508;28;20097;-46
2023/12/14 02:11:48;;;;;;;2.00;1.33;;;20.80;99.90;;;;;;4973868;28;20058;-46
2023/12/14 02:14:14;;;;;;;2.53;1.40;;;20.80;99.90;;;;;;4973485;28;20026;-47
2023/12/14 02:16:40;;;;;;;2.00;1.30;;;20.80;99.90;;;;;;4973507;28;20057;-46
2023/12/14 02:19:06;;;;;;;2.88;1.40;;;20.80;99.90;;;;;;4973356;28;20064;-46
2023/12/14 02:21:32;;;;;;;3.42;1.40;;;20.80;99.90;;;;;;4973700;28;20426;-46
2023/12/14 02:23:57;;;;;;;2.75;1.45;;;20.80;99.90;;;;;;4973504;28;20023;-46
2023/12/14 02:26:23;;;;;;;3.20;1.48;;;20.70;99.90;;;;;;4973527;28;20526;-46
2023/12/14 02:28:49;;;;;;;2.58;1.40;;;20.80;99.90;;;;;;4972197;28;20023;-46
2023/12/14 02:31:15;;;;;;;2.25;1.30;;;20.70;99.90;;;;;;4973405;28;20026;-46
2023/12/14 02:33:41;;;;;;;4.07;1.60;;;20.70;99.90;;;;;;4973444;28;20047;-46
2023/12/14 02:36:07;;;;;;;2.30;1.58;;;20.70;99.90;;;;;;4973731;28;20026;-46
2023/12/14 02:38:33;;;;;;;1.48;1.20;;;20.70;99.90;;;;;;4973291;28;20030;-46
2023/12/14 02:40:59;;;;;;;4.22;1.50;;;20.70;99.90;;;;;;4973417;28;20418;-46
2023/12/14 02:43:25;;;;;;;3.10;1.00;;;20.70;99.90;;;;;;4973387;28;20019;-46
2023/12/14 02:45:51;;;;;;;2.63;1.30;;;20.70;99.90;;;;;;4974054;28;20037;-46
2023/12/14 02:48:16;;;;;;;2.78;1.25;;;20.70;99.90;;;;;;4977255;28;20373;-47
2023/12/14 02:50:42;;;;;;;3.50;1.38;;;20.70;99.90;;;;;;4975937;28;20058;-45
2023/12/14 02:53:08;;;;;;;3.83;1.25;;;20.60;99.90;;;;;;4992210;28;20480;-46
2023/12/14 02:55:34;;;;;;;4.00;1.33;;;20.60;99.90;;;;;;4977026;28;20058;-44
2023/12/14 02:58:00;;;;;;;4.57;1.60;;;20.70;99.90;;;;;;4973685;28;20042;-47
2023/12/14 03:00:25;;;;;;;16.48;2.85;;;20.60;99.90;;;;;;4971294;28;20049;-46
2023/12/14 03:02:51;;;;;;;2.95;1.20;;;20.60;99.90;;;;;;4976482;28;20035;-46
2023/12/14 03:05:17;;;;;;;8.82;1.58;;;20.60;99.90;;;;;;4976247;28;20026;-46
2023/12/14 03:07:43;;;;;;;4.07;1.13;;;20.60;99.90;;;;;;4976460;28;20526;-45
2023/12/14 03:10:09;;;;;;;2.75;1.17;;;20.60;99.90;;;;;;4973768;28;20023;-46
2023/12/14 03:12:35;;;;;;;5.18;1.40;;;20.60;99.90;;;;;;4976766;28;20022;-46
2023/12/14 03:15:00;;;;;;;5.85;1.75;;;20.60;99.90;;;;;;4991005;28;20367;-45
2023/12/14 03:17:26;;;;;;;10.75;1.40;;;20.60;99.90;;;;;;4976458;28;20031;-47
2023/12/14 03:19:52;;;;;;;4.03;1.15;;;20.60;99.90;;;;;;4976250;28;20035;-45
2023/12/14 03:22:18;;;;;;;3.65;1.70;;;20.60;99.90;;;;;;4976190;28;20022;-46
2023/12/14 03:24:43;;;;;;;2.40;1.20;;;20.60;99.90;;;;;;4976249;28;20031;-46
2023/12/14 03:27:09;;;;;;;2.22;1.20;;;20.60;99.90;;;;;;4976642;28;20027;-46
2023/12/14 03:29:35;;;;;;;3.90;1.20;;;20.60;99.90;;;;;;4975819;28;20027;-45
2023/12/14 03:32:01;;;;;;;6.05;1.20;;;20.60;99.90;;;;;;4991249;28;20023;-46
2023/12/14 03:34:27;;;;;;;6.43;1.50;;;20.60;99.90;;;;;;4976157;28;20356;-45
2023/12/14 03:36:53;;;;;;;4.47;0.90;;;20.60;99.90;;;;;;4975894;28;20027;-47
2023/12/14 03:39:18;;;;;;;2.42;1.50;;;20.60;99.90;;;;;;4976238;28;20471;-46
2023/12/14 03:41:45;;;;;;;5.45;1.65;;;20.60;99.90;;;;;;4975559;28;20054;-46
2023/12/14 03:44:11;;;;;;;4.53;1.10;;;20.60;99.90;;;;;;4975310;28;20019;-47
2023/12/14 03:46:37;;;;;;;8.27;1.65;;;20.60;99.90;;;;;;4991092;28;20023;-46
2023/12/14 03:49:03;;;;;;;3.92;1.30;;;20.50;99.90;;;;;;4978740;28;20031;-45
2023/12/14 03:51:29;;;;;;;5.07;1.27;;;20.50;99.90;;;;;;4973840;28;20023;-45
2023/12/14 03:53:55;;;;;;;4.65;1.10;;;20.50;99.90;;;;;;4975521;28;20356;-45
2023/12/14 03:56:22;;;;;;;2.38;1.15;;;20.50;99.90;;;;;;4975843;28;20070;-46
2023/12/14 03:58:48;;;;;;;4.60;1.45;;;20.50;99.90;;;;;;4974512;28;20019;-46
2023/12/14 04:01:21;;;;;;;1.73;0.85;;;20.50;99.90;;;;;;4969048;28;20047;-45
2023/12/14 04:03:47;;;;;;;2.80;1.00;;;20.50;99.90;;;;;;4973980;28;20050;-46
2023/12/14 04:06:14;;;;;;;3.72;1.23;;;20.50;99.90;;;;;;4975917;28;20078;-46
2023/12/14 04:08:40;;;;;;;5.18;1.17;;;20.50;99.90;;;;;;4975715;28;20034;-46
2023/12/14 04:11:06;;;;;;;4.38;1.20;;;20.50;99.90;;;;;;4975313;28;20030;-46
2023/12/14 04:13:32;;;;;;;4.43;1.42;;;20.50;99.90;;;;;;4975528;28;20102;-45
2023/12/14 04:15:58;;;;;;;3.47;1.20;;;20.40;99.90;;;;;;4975318;28;20019;-45
2023/12/14 04:18:24;;;;;;;3.08;1.20;;;20.40;99.90;;;;;;4975454;28;20030;-45
2023/12/14 04:20:50;;;;;;;1.50;1.20;;;20.40;99.90;;;;;;4975083;28;20369;-45
2023/12/14 04:23:16;;;;;;;3.65;1.38;;;20.40;99.90;;;;;;4974553;28;20023;-46
2023/12/14 04:25:42;;;;;;;6.80;1.15;;;20.40;99.90;;;;;;4973595;28;20057;-46
2023/12/14 04:28:08;;;;;;;2.20;0.90;;;20.30;99.90;;;;;;4975004;28;20551;-45
2023/12/14 04:30:34;;;;;;;1.70;0.85;;;20.40;99.90;;;;;;4975338;28;20380;-45
2023/12/14 04:33:00;;;;;;;1.70;0.98;;;20.40;99.90;;;;;;4975412;28;20030;-45
2023/12/14 04:35:25;;;;;;;1.67;0.80;;;20.30;99.90;;;;;;4974446;28;20475;-46
2023/12/14 04:37:51;;;;;;;3.47;0.82;;;20.40;99.90;;;;;;4975250;28;20053;-45
2023/12/14 04:40:17;;;;;;;3.90;1.20;;;20.40;99.90;;;;;;4975186;28;20492;-45
2023/12/14 04:42:43;;;;;;;4.18;1.15;;;20.30;99.90;;;;;;4975281;28;20105;-45
2023/12/14 04:45:09;;;;;;;1.73;0.70;;;20.40;99.90;;;;;;4975085;28;20420;-45
2023/12/14 04:47:35;;;;;;;4.28;1.05;;;20.30;99.90;;;;;;4975079;28;20027;-45
2023/12/14 04:50:02;;;;;;;2.40;1.00;;;20.30;99.90;;;;;;4975027;28;20499;-45
2023/12/14 04:52:28;;;;;;;2.05;0.95;;;20.30;99.90;;;;;;4972991;28;20401;-45
2023/12/14 04:54:54;;;;;;;2.22;0.70;;;20.30;99.90;;;;;;4989016;28;20122;-46
2023/12/14 04:57:20;;;;;;;3.40;0.82;;;20.30;99.90;;;;;;4973649;28;20383;-46
2023/12/14 04:59:46;;;;;;;4.60;1.35;;;20.30;99.90;;;;;;4974085;28;20538;-46
2023/12/14 05:02:11;;;;;;;3.83;1.20;;;20.30;99.90;;;;;;4975256;28;20058;-46
2023/12/14 05:04:37;;;;;;;2.08;0.93;;;20.30;99.90;;;;;;4974329;28;20376;-45
2023/12/14 05:07:03;;;;;;;4.05;1.05;;;20.30;99.90;;;;;;4974231;28;20025;-44
2023/12/14 05:09:29;;;;;;;2.67;1.23;;;20.30;99.90;;;;;;4974376;28;20450;-44
2023/12/14 05:11:55;;;;;;;2.85;0.82;;;20.30;99.90;;;;;;4974648;28;20026;-45
2023/12/14 05:14:20;;;;;;;3.17;0.85;;;20.20;99.90;;;;;;4973486;28;20030;-45
2023/12/14 05:16:46;;;;;;;3.50;0.85;;;20.20;99.90;;;;;;4974784;28;20093;-45
2023/12/14 05:19:15;;;;;;;4.07;0.88;;;20.20;99.90;;;;;;4974753;28;20356;-45
2023/12/14 05:21:40;;;;;;;1.90;0.70;;;20.20;99.90;;;;;;4974416;28;20031;-45
2023/12/14 05:24:06;;;;;;;3.13;1.08;;;20.20;99.90;;;;;;4974296;28;20031;-45
2023/12/14 05:26:32;;;;;;;2.53;0.88;;;20.20;99.90;;;;;;4974320;28;20031;-46
2023/12/14 05:28:58;;;;;;;4.40;0.93;;;20.20;99.90;;;;;;4974269;28;20066;-46
2023/12/14 05:31:23;;;;;;;3.38;1.10;;;20.20;99.90;;;;;;4974333;28;20025;-46
2023/12/14 05:33:49;;;;;;;1.65;1.00;;;20.20;99.90;;;;;;4972895;28;20041;-46
2023/12/14 05:36:15;;;;;;;2.17;0.82;;;20.20;99.90;;;;;;4974443;28;20022;-45
2023/12/14 05:38:41;;;;;;;3.80;1.13;;;20.20;99.90;;;;;;4973966;28;20034;-45
2023/12/14 05:41:07;;;;;;;1.90;0.75;;;20.20;99.90;;;;;;4974148;28;20253;-45
2023/12/14 05:43:33;;;;;;;1.42;0.75;;;20.20;99.90;;;;;;4989047;28;20023;-45
2023/12/14 05:45:59;;;;;;;2.08;1.00;;;20.10;99.90;;;;;;4974064;28;20376;-45
2023/12/14 05:48:26;;;;;;;2.90;0.88;;;20.20;99.90;;;;;;4973953;28;20019;-45
2023/12/14 05:50:52;;;;;;;0.85;0.55;;;20.10;99.90;;;;;;4974008;28;20027;-45
2023/12/14 05:53:18;;;;;;;1.85;0.88;;;20.10;99.90;;;;;;4973968;28;20451;-45
2023/12/14 05:55:44;;;;;;;4.22;1.17;;;20.10;99.90;;;;;;4974131;28;20468;-45
2023/12/14 05:58:10;;;;;;;3.08;0.98;;;20.10;99.90;;;;;;4973880;28;20047;-45
2023/12/14 06:00:36;;;;;;;1.40;0.70;;;20.10;99.90;;;;;;4972557;28;20381;-46
2023/12/14 06:03:02;;;;;;;4.07;1.15;;;20.10;99.90;;;;;;4972978;28;20038;-46
2023/12/14 06:05:28;;;;;;;2.88;1.33;;;20.10;99.90;;;;;;4972208;28;20034;-46
2023/12/14 06:07:54;;;;;;;3.40;0.80;;;20.10;99.90;;;;;;4971744;28;20037;-45
2023/12/14 06:10:21;;;;;;;2.67;0.90;;;20.10;99.90;;;;;;4972747;28;20042;-45
2023/12/14 06:12:47;;;;;;;1.73;0.95;;;20.10;99.90;;;;;;4973665;28;20026;-45
2023/12/14 06:15:13;;;;;;;2.28;1.02;;;20.10;99.90;;;;;;4972361;28;20031;-45
2023/12/14 06:17:40;;;;;;;2.13;0.93;;;20.10;99.90;;;;;;4973400;28;20369;-45
2023/12/14 06:20:10;;;;;;;2.85;1.17;;;20.10;99.90;;;;;;4969357;28;20043;-44
2023/12/14 06:22:39;;;;;;;3.50;0.95;;;20.10;99.90;;;;;;4972668;28;20519;-44
2023/12/14 06:25:05;;;;;;;4.40;1.02;;;20.10;99.90;;;;;;4973284;28;20046;-46
2023/12/14 06:27:31;;;;;;;4.10;0.90;;;20.10;99.90;;;;;;4973125;28;20037;-44
2023/12/14 06:29:56;;;;;;;4.60;1.00;;;20.00;99.90;;;;;;4973210;28;20019;-44
2023/12/14 06:32:22;;;;;;;2.63;1.48;;;20.10;99.90;;;;;;4972654;28;20031;-44
2023/12/14 06:34:48;;;;;;;2.65;1.10;;;20.00;99.90;;;;;;4972439;28;20023;-44
2023/12/14 06:37:14;;;;;;;2.67;1.20;;;20.00;99.90;;;;;;4972655;28;20099;-45
2023/12/14 06:39:43;;;;;;;3.47;1.33;;;20.00;99.90;;;;;;4973189;28;20035;-45
2023/12/14 06:42:08;;;;;;;2.15;1.00;;;20.00;99.90;;;;;;4973352;28;20041;-45
2023/12/14 06:44:34;;;;;;;2.42;1.25;;;20.00;99.90;;;;;;4973473;28;20499;-46
2023/12/14 06:47:00;;;;;;;4.57;1.15;;;20.00;99.90;;;;;;4988312;28;20057;-45
2023/12/14 06:49:26;;;;;;;2.53;1.42;;;20.00;99.90;;;;;;4973209;28;20026;-44
2023/12/14 06:51:52;;;;;;;4.72;1.67;;;20.00;99.90;;;;;;4973388;28;20038;-44
2023/12/14 06:54:18;;;;;;;1.98;1.10;;;20.00;99.90;;;;;;4973325;28;20027;-44
2023/12/14 06:56:44;;;;;;;2.90;1.88;;;20.00;99.90;;;;;;4973098;28;20094;-44
2023/12/14 06:59:10;;;;;;;2.53;1.40;;;20.00;99.90;;;;;;4972859;28;20126;-45
2023/12/14 07:01:36;;;;;;;5.15;1.35;;;20.00;99.90;;;;;;4972866;28;20058;-45
2023/12/14 07:04:04;;;;;;;2.85;1.40;;;20.00;99.90;;;;;;4972983;28;20038;-45
2023/12/14 07:06:30;;;;;;;2.88;1.58;;;20.00;99.90;;;;;;4973014;28;20098;-44
2023/12/14 07:08:56;;;;;;;3.88;1.48;;;20.00;99.90;;;;;;4973018;28;20578;-45
2023/12/14 07:11:22;;;;;;;3.05;1.23;;;20.00;99.90;;;;;;4973216;28;20023;-45
2023/12/14 07:13:48;;;;;;;2.30;1.50;;;20.00;99.90;;;;;;4973135;28;20034;-45
2023/12/14 07:16:14;;;;;;;3.60;1.23;;;20.00;99.90;;;;;;4972939;28;20030;-44
2023/12/14 07:18:43;;;;;;;5.97;2.10;;;20.00;99.90;;;;;;4972832;28;20105;-45
2023/12/14 07:21:09;;;;;;;3.80;1.80;;;20.00;99.90;;;;;;4973051;28;20031;-44
2023/12/14 07:23:36;;;;;;;6.07;1.67;;;20.00;99.90;;;;;;4973004;28;20026;-45
2023/12/14 07:26:02;;;;;;;3.07;1.70;;;20.00;99.90;;;;;;4987874;28;20106;-45
2023/12/14 07:28:28;;;;;;;4.50;1.45;;;20.00;99.90;;;;;;4972979;28;20023;-45
2023/12/14 07:30:54;;;;;;;5.90;1.70;;;20.00;99.90;;;;;;4972848;28;20019;-45
2023/12/14 07:33:20;;;;;;;5.90;1.88;;;19.90;99.90;;;;;;4990884;28;20034;-45
2023/12/14 07:35:46;;;;;;;6.55;1.60;;;20.00;99.90;;;;;;4976377;28;20022;-45
2023/12/14 07:38:13;;;;;;;4.80;1.58;;;20.00;99.90;;;;;;4976340;28;20027;-45
2023/12/14 07:40:40;;;;;;;6.75;1.77;;;20.00;99.90;;;;;;4976387;28;20158;-46
2023/12/14 07:43:06;;;;;;;4.68;1.90;;;20.00;99.90;;;;;;4976087;28;20098;-46
2023/12/14 07:45:31;;;;;;;2.63;1.50;;;20.00;99.90;;;;;;4976171;28;20122;-45
2023/12/14 07:47:58;;;;;;;2.65;1.35;;;20.00;99.90;;;;;;4975920;28;20106;-46
2023/12/14 07:50:24;;;;;;;5.82;1.60;;;20.00;99.90;;;;;;4976348;28;20023;-45
2023/12/14 07:52:49;;;;;;;4.95;1.67;;;20.00;99.90;;;;;;4976283;28;20050;-45
2023/12/14 07:55:15;;;;;;;5.70;2.00;;;20.10;99.90;;;;;;4976047;28;20434;-46
2023/12/14 07:57:41;;;;;;;2.58;1.60;;;20.10;99.90;;;;;;4975948;28;20023;-45
2023/12/14 08:00:10;;;;;;;4.80;1.85;;;20.10;99.90;;;;;;4975772;28;20039;-46
2023/12/14 08:02:37;;;;;;;3.95;1.80;;;20.10;99.90;;;;;;4975412;28;20489;-45
2023/12/14 08:05:03;;;;;;;2.67;1.40;;;20.10;99.90;;;;;;4975818;28;20448;-46
2023/12/14 08:07:30;;;;;;;4.05;1.60;;;20.20;99.90;;;;;;4975849;28;20480;-46
2023/12/14 08:09:56;;;;;;;4.10;1.70;;;20.20;99.90;;;;;;4975467;28;20087;-46
2023/12/14 08:12:24;;;;;;;4.25;1.55;;;20.30;99.90;;;;;;4975684;28;20074;-46
2023/12/14 08:14:50;;;;;;;2.90;1.70;;;20.30;99.90;;;;;;4975303;28;20031;-46
2023/12/14 08:17:16;;;;;;;2.83;1.70;;;20.30;99.90;;;;;;4975322;28;20030;-46
2023/12/14 08:19:43;;;;;;;4.88;1.98;;;20.30;99.90;;;;;;4975399;28;20039;-46
2023/12/14 08:22:12;;;;;;;4.45;1.98;;;20.40;99.90;;;;;;4975305;28;20082;-46
2023/12/14 08:24:41;;;;;;;3.00;1.50;;;20.40;99.90;;;;;;4989908;28;20400;-46
2023/12/14 08:27:07;;;;;;;4.68;1.70;;;20.40;99.90;;;;;;4975024;28;20480;-46
2023/12/14 08:29:33;;;;;;;2.00;1.30;;;20.50;99.90;;;;;;4974979;28;20062;-46
2023/12/14 08:31:59;;;;;;;4.65;1.45;;;20.50;99.90;;;;;;4975145;28;20019;-47
2023/12/14 08:34:28;;;;;;;3.28;1.65;;;20.60;99.90;;;;;;4975098;28;20023;-47
2023/12/14 08:36:54;;;;;;;3.88;2.03;;;20.60;99.90;;;;;;4975133;28;20019;-46
2023/12/14 08:39:20;;;;;;;5.30;1.77;;;20.60;99.90;;;;;;4974715;28;20118;-46
2023/12/14 08:41:47;;;;;;;4.32;1.85;;;20.60;99.90;;;;;;4974947;28;20110;-46
2023/12/14 08:44:13;;;;;;;3.05;1.75;;;20.60;99.90;;;;;;4974126;28;20570;-46
2023/12/14 08:46:40;;;;;;;3.80;1.85;;;20.70;99.90;;;;;;4974865;28;20038;-46
2023/12/14 08:49:06;;;;;;;11.68;2.20;;;20.70;99.90;;;;;;4974901;28;20110;-53
2023/12/14 08:51:32;;;;;;;4.15;1.98;;;20.80;99.90;;;;;;4974569;28;20491;-47
2023/12/14 08:53:58;;;;;;;4.25;2.03;;;20.80;99.90;;;;;;4973703;28;20065;-47
2023/12/14 08:56:24;;;;;;;3.60;1.83;;;20.80;99.90;;;;;;4974963;28;20025;-46
2023/12/14 08:58:50;;;;;;;8.57;2.55;;;20.90;99.90;;;;;;4974461;28;20113;-46
2023/12/14 09:01:23;;;;;;;4.93;1.83;;;20.90;99.90;;;;;;4974537;28;20046;-46
2023/12/14 09:03:49;;;;;;;3.33;1.63;;;20.90;99.90;;;;;;4974731;28;20054;-46
2023/12/14 09:06:19;;;;;;;6.20;2.33;;;21.00;99.90;;;;;;4974294;28;20483;-47
2023/12/14 09:08:45;;;;;;;3.55;1.95;;;21.00;99.90;;;;;;4974423;28;20147;-46
2023/12/14 09:11:11;;;;;;;6.10;2.38;;;21.10;99.90;;;;;;4973050;28;20031;-46
2023/12/14 09:13:37;;;;;;;5.57;1.90;;;21.10;99.90;;;;;;4974396;28;20019;-45
2023/12/14 09:16:03;;;;;;;4.00;2.08;;;21.20;99.90;;;;;;4974162;28;20387;-45
2023/12/14 09:18:29;;;;;;;4.70;2.17;;;21.20;99.90;;;;;;4974155;28;20030;-46
2023/12/14 09:20:54;;;;;;;2.83;1.95;;;21.20;99.90;;;;;;4974332;28;20045;-45
2023/12/14 09:23:20;;;;;;;4.30;1.80;;;21.30;99.90;;;;;;4974044;28;20494;-50
2023/12/14 09:25:46;;;;;;;4.75;2.20;;;21.30;99.90;;;;;;4974018;28;20026;-46
2023/12/14 09:28:12;;;;;;;3.80;2.03;;;21.30;99.90;;;;;;4973727;28;20106;-46
2023/12/14 09:30:38;;;;;;;3.58;2.05;;;21.40;99.90;;;;;;4973880;28;20098;-46
2023/12/14 09:33:04;;;;;;;3.55;1.80;;;21.50;99.90;;;;;;4973908;28;20037;-46
2023/12/14 09:35:30;;;;;;;4.55;1.95;;;21.50;99.90;;;;;;4973721;28;20034;-47
2023/12/14 09:37:56;;;;;;;3.08;1.40;;;21.50;99.90;;;;;;4988871;28;20510;-46
2023/12/14 09:40:22;;;;;;;3.42;1.92;;;21.60;99.90;;;;;;4973681;28;20479;-45
2023/12/14 09:42:49;;;;;;;3.15;1.70;;;21.60;99.90;;;;;;4973732;28;20027;-46
2023/12/14 09:45:17;;;;;;;5.00;2.17;;;21.70;99.90;;;;;;4973677;28;20475;-46
2023/12/14 09:47:44;;;;;;;3.28;1.75;;;21.70;99.90;;;;;;4972339;28;20081;-46
2023/12/14 09:50:10;;;;;;;5.32;1.90;;;21.70;99.90;;;;;;4973722;28;20052;-45
2023/12/14 09:52:36;;;;;;;5.88;1.70;;;21.80;99.90;;;;;;4973619;28;20031;-47
2023/12/14 09:55:03;;;;;;;3.17;1.45;;;21.80;99.90;;;;;;4973047;28;20018;-47
2023/12/14 09:57:30;;;;;;;4.13;1.60;;;21.90;99.90;;;;;;4971957;28;20022;-46
2023/12/14 09:59:56;;;;;;;4.35;1.60;;;21.90;99.90;;;;;;4973505;28;20081;-46
2023/12/14 10:02:29;;;;;;;4.15;2.13;;;21.90;99.90;;;;;;4971156;28;20058;-47
2023/12/14 10:04:55;;;;;;;3.20;1.70;;;22.00;99.90;;;;;;4972427;28;20026;-46
2023/12/14 10:07:22;;;;;;;4.38;1.85;;;22.10;99.90;;;;;;4972611;28;20361;-47
2023/12/14 10:09:47;;;;;;;4.30;1.65;;;22.10;99.90;;;;;;4973269;28;20472;-47
2023/12/14 10:12:13;;;;;;;7.47;1.58;;;22.20;99.90;;;;;;4973514;28;20027;-46
2023/12/14 10:14:39;;;;;;;5.43;2.15;;;22.30;99.90;;;;;;4973375;28;20065;-46
2023/12/14 10:17:32;;;;;;;4.25;1.65;;;22.30;99.90;;;;;;4988147;28;20026;-46
2023/12/14 10:20:00;;;;;;;3.70;1.80;;;22.40;99.90;;;;;;4973425;28;20221;-46
2023/12/14 10:22:28;;;;;;;4.85;2.20;;;22.50;99.90;;;;;;4972112;28;20018;-46
2023/12/14 10:24:54;;;;;;;7.25;1.90;;;22.50;99.90;;;;;;4972714;28;20035;-46
2023/12/14 10:27:20;;;;;;;4.72;1.83;;;22.60;99.90;;;;;;4973407;28;20053;-46
2023/12/14 10:29:46;;;;;;;4.22;1.80;;;22.60;99.90;;;;;;4972208;28;20042;-45
2023/12/14 10:32:12;;;;;;;11.57;2.10;;;22.70;99.90;;;;;;4972597;28;20471;-44
2023/12/14 10:34:41;;;;;;;3.28;1.65;;;22.70;99.90;;;;;;4972861;28;20023;-45
2023/12/14 10:37:08;;;;;;;5.60;1.90;;;22.80;99.90;;;;;;4969340;28;20029;-44
2023/12/14 10:39:35;;;;;;;6.65;2.10;;;22.80;99.90;;;;;;4971941;28;20074;-45
2023/12/14 10:42:06;;;;;;;7.70;2.10;;;22.90;99.90;;;;;;4973087;28;20475;-45
2023/12/14 10:44:36;;;;;;;4.70;1.80;;;22.90;99.90;;;;;;4971012;28;20098;-46
2023/12/14 10:47:06;;;;;;;6.57;2.28;;;23.00;99.90;;;;;;4972874;28;20121;-47
2023/12/14 10:49:34;;;;;;;9.02;1.83;;;23.10;99.90;;;;;;4973029;28;20479;-46
2023/12/14 10:52:02;;;;;;;6.72;2.35;;;23.10;99.90;;;;;;4973147;28;20038;-47
2023/12/14 10:54:30;;;;;;;7.38;2.00;;;23.20;99.90;;;;;;4972525;28;20070;-47
2023/12/14 10:56:57;;;;;;;3.72;1.98;;;23.20;99.90;;;;;;4973287;28;20031;-46
2023/12/14 10:59:24;;;;;;;10.15;2.63;;;23.30;99.90;;;;;;4973136;28;20126;-46
2023/12/14 11:01:54;;;;;;;7.13;2.30;;;23.30;99.90;;;;;;4972327;28;20498;-47
2023/12/14 11:04:22;;;;;;;10.55;2.22;;;23.30;99.90;;;;;;4987272;28;20041;-46
2023/12/14 11:06:48;;;;;;;9.77;2.72;;;23.40;99.90;;;;;;4971570;28;20035;-45
2023/12/14 11:09:18;;;;;;;6.75;2.28;;;23.40;99.90;;;;;;4974334;28;20384;-46
2023/12/14 11:11:53;;;;;;;9.43;2.97;;;23.40;99.90;;;;;;4976567;28;20027;-46
2023/12/14 11:14:20;;;;;;;6.68;1.90;;;23.40;99.90;;;;;;4974628;28;20086;-46
2023/12/14 11:16:48;;;;;;;6.63;2.22;;;23.50;99.90;;;;;;4958722;28;20499;-45
2023/12/14 11:19:23;;;;;;;7.32;2.20;;;23.50;99.90;;;;;;4970636;28;20407;-46
2023/12/14 11:22:12;;;;;;;6.93;2.15;;;23.60;99.90;;;;;;4958711;28;20496;-47
2023/12/14 11:24:45;;;;;;;10.77;2.45;;;23.60;99.90;;;;;;4975651;28;20035;-46
2023/12/14 11:27:12;;;;;;;8.13;2.03;;;23.60;99.90;;;;;;4961354;28;20395;-47
2023/12/14 11:29:41;;;;;;;2.93;1.67;;;23.70;99.90;;;;;;4976657;28;20030;-47
2023/12/14 11:32:07;;;;;;;6.53;1.70;;;23.70;99.90;;;;;;4973982;28;20027;-47
2023/12/14 11:34:33;;;;;;;9.43;1.90;;;23.70;99.90;;;;;;4976611;28;20023;-45
2023/12/14 11:36:59;;;;;;;6.90;1.88;;;23.80;99.90;;;;;;4974328;28;20380;-46
2023/12/14 11:39:29;;;;;;;9.02;1.63;;;23.80;99.90;;;;;;4976139;28;20471;-47
2023/12/14 11:42:08;;;;;;;4.85;1.90;;;23.80;99.90;;;;;;4974891;28;20030;-47
2023/12/14 11:44:35;;;;;;;4.07;1.90;;;23.90;99.90;;;;;;4959333;28;20026;-47
2023/12/14 11:47:01;;;;;;;8.95;2.00;;;23.90;99.90;;;;;;4964697;28;20031;-47
2023/12/14 11:49:27;;;;;;;6.65;2.03;;;24.00;99.90;;;;;;4968072;28;20498;-46
2023/12/14 11:51:55;;;;;;;3.85;1.70;;;24.00;99.90;;;;;;4963146;28;20033;-47
2023/12/14 11:54:21;;;;;;;4.60;1.83;;;24.00;99.90;;;;;;4975973;28;20034;-47
2023/12/14 11:56:50;;;;;;;9.65;2.28;;;24.10;99.90;;;;;;4973913;28;20042;-46
2023/12/14 11:59:17;;;;;;;5.68;2.20;;;24.10;99.90;;;;;;4975091;28;20031;-47
2023/12/14 12:02:00;;;;;;;2.92;1.95;;;24.10;99.90;;;;;;4971677;28;20046;-46
2023/12/14 12:04:26;;;;;;;8.45;1.90;;;24.20;99.90;;;;;;4974586;28;20054;-47
2023/12/14 12:07:03;;;;;;;6.90;2.47;;;24.20;99.90;;;;;;4973877;28;20041;-46
2023/12/14 12:09:42;;;;;;;4.05;1.77;;;24.30;99.90;;;;;;4975636;28;20133;-47
2023/12/14 12:12:12;;;;;;;5.18;2.33;;;24.30;99.90;;;;;;4975370;28;20026;-48
2023/12/14 12:14:39;;;;;;;9.65;2.75;;;24.40;99.90;;;;;;4958146;28;20392;-47
2023/12/14 12:17:05;;;;;;;3.73;2.43;;;24.40;99.90;;;;;;4974195;28;20031;-45
2023/12/14 12:19:37;;;;;;;4.60;2.67;;;24.50;99.90;;;;;;4972694;28;20041;-49
2023/12/14 12:22:03;;;;;;;6.85;2.53;;;24.50;99.90;;;;;;4975123;28;20050;-50
2023/12/14 12:24:29;;;;;;;6.57;3.60;;;24.50;99.90;;;;;;4975054;28;20463;-49
2023/12/14 12:26:56;;;;;;;4.50;2.72;;;24.50;99.90;;;;;;4987837;28;20027;-50
2023/12/14 12:29:22;;;;;;;5.85;2.47;;;24.50;99.90;;;;;;4975105;28;20032;-50
2023/12/14 12:31:49;;;;;;;7.57;2.92;;;24.50;99.90;;;;;;4974259;28;20038;-51
2023/12/14 12:34:15;;;;;;;6.35;2.40;;;24.50;99.90;;;;;;4975308;28;20035;-52
2023/12/14 12:36:41;;;;;;;5.28;2.47;;;24.50;99.90;;;;;;4974115;28;20042;-51
2023/12/14 12:39:08;;;;;;;5.40;3.42;;;24.50;99.90;;;;;;4969454;28;20054;-51
2023/12/14 12:41:34;;;;;;;6.25;3.08;;;24.60;99.90;;;;;;4974917;28;20463;-50